Republica Dominicana

TAF

                                                                                                                                                                                                                                                                     

SANTO DOMINGO 25 DE FEBRERO  DEL 2019

                                                                                               AEROP. INT. LAS AMERICAS JFPG-

 

FTDR31 MDSD 252200Z
TAF 

TAF MDPP 252200Z 2600/2700 09010KT 9999 FEW018 BECMG 2601/2603 00000KT=

TAF MDST 252200Z 2600/2700 12010KT 9999 FEW018=

TAF MDPC 252200Z 2600/2700 07005KT 9999 FEW020 BECMG 2608/2610 00000KT=

TAF MDBH 252200Z 2600/2700 16016KT 9999 FEW028 SCT300 PROB30 2604/2608 8000 -RA FEW018CB SCT018 SCT070=

TAF MDJB 252200Z 2600/2700 18010KT 9999 SCT018 BECMG 2600/2602 00000KT=

TAF MDSD 252200Z 2600/2700 15006KT 9999 FEW020 BECMG 2602/2604 02004KT=

TAF MDLR 252200Z 2600/2700 00000KT 9999 SCT018 PROB30 2600/2606 8000 –SH BKN016 BECMG 2613/2615 12010KT=

TAF MDCY 252200Z 2600/2700 04005KT 9999 FEW016 BECMG 2601/2603 00000KT=

           

MDPP AEROPUERTO INTERNACIONAL LA UNION PUERTO PLATA

MDST AEROPUERTO INTERNACIONAL DE SANTIAGO

MDPC AEROPUERTO INTERNACIONAL PUNTA CANA

MDBH AEROPUERTO INTERNACIONAL DE BARAHONA

MDJB AEROPUERTO INTERNACIONAL JOAQUIN BALAGUER

MDSD AEROPUERTO INTERNACIONAL LAS AMERICAS

MDLR AEROPUERTO INTERNACIONAL LA ROMANA

MDCY AEROPUERTO INTERNACIONAL DE CATEY

 

BILLY DE LA CRUZ

MDPP // J.ACOSTA

MDST // J. SALADO

MDPC // M. Familia.

MDJB // CACERES

MDLR // Y. MEJIA

MDBH//TEXANO

MDCY//CORCINO

 




Tamaño letra

Contraste

Otros